sensor_id;sensor_type;location;lat;lon;timestamp;temperature;humidity
11264;DHT22;5689;48.798;9.070;2023-12-14T00:01:15;6.50;99.90
11264;DHT22;5689;48.798;9.070;2023-12-14T00:03:43;6.50;99.90
11264;DHT22;5689;48.798;9.070;2023-12-14T00:06:13;6.60;99.90
11264;DHT22;5689;48.798;9.070;2023-12-14T00:08:41;6.60;99.90
11264;DHT22;5689;48.798;9.070;2023-12-14T00:11:10;6.80;99.90
11264;DHT22;5689;48.798;9.070;2023-12-14T00:13:39;6.80;99.90
11264;DHT22;5689;48.798;9.070;2023-12-14T00:16:08;6.70;99.90
11264;DHT22;5689;48.798;9.070;2023-12-14T00:18:36;6.60;99.90
11264;DHT22;5689;48.798;9.070;2023-12-14T00:21:04;6.60;99.90
11264;DHT22;5689;48.798;9.070;2023-12-14T00:23:35;6.60;99.90
11264;DHT22;5689;48.798;9.070;2023-12-14T00:26:03;6.60;99.90
11264;DHT22;5689;48.798;9.070;2023-12-14T00:28:31;6.40;99.90
11264;DHT22;5689;48.798;9.070;2023-12-14T00:30:59;6.30;99.90
11264;DHT22;5689;48.798;9.070;2023-12-14T00:33:27;6.40;99.90
11264;DHT22;5689;48.798;9.070;2023-12-14T00:35:55;6.40;99.90
11264;DHT22;5689;48.798;9.070;2023-12-14T00:38:23;6.40;99.90
11264;DHT22;5689;48.798;9.070;2023-12-14T00:40:53;6.40;99.90
11264;DHT22;5689;48.798;9.070;2023-12-14T00:43:21;6.50;99.90
11264;DHT22;5689;48.798;9.070;2023-12-14T00:45:49;6.40;99.90
11264;DHT22;5689;48.798;9.070;2023-12-14T00:48:19;6.50;99.90
11264;DHT22;5689;48.798;9.070;2023-12-14T00:50:47;6.50;99.90
11264;DHT22;5689;48.798;9.070;2023-12-14T00:53:15;6.50;99.90
11264;DHT22;5689;48.798;9.070;2023-12-14T00:55:43;6.50;99.90
11264;DHT22;5689;48.798;9.070;2023-12-14T00:58:13;6.50;99.90
11264;DHT22;5689;48.798;9.070;2023-12-14T01:00:41;6.50;99.90
11264;DHT22;5689;48.798;9.070;2023-12-14T01:03:10;6.50;99.90
11264;DHT22;5689;48.798;9.070;2023-12-14T01:05:37;6.60;99.90
11264;DHT22;5689;48.798;9.070;2023-12-14T01:08:06;6.60;99.90
11264;DHT22;5689;48.798;9.070;2023-12-14T01:10:35;6.70;99.90
11264;DHT22;5689;48.798;9.070;2023-12-14T01:13:03;6.70;99.90
11264;DHT22;5689;48.798;9.070;2023-12-14T01:15:32;6.60;99.90
11264;DHT22;5689;48.798;9.070;2023-12-14T01:18:01;6.60;99.90
11264;DHT22;5689;48.798;9.070;2023-12-14T01:20:29;6.50;99.90
11264;DHT22;5689;48.798;9.070;2023-12-14T01:22:57;6.50;99.90
11264;DHT22;5689;48.798;9.070;2023-12-14T01:25:25;6.40;99.90
11264;DHT22;5689;48.798;9.070;2023-12-14T01:27:53;6.40;99.90
11264;DHT22;5689;48.798;9.070;2023-12-14T01:30:21;6.40;99.90
11264;DHT22;5689;48.798;9.070;2023-12-14T01:32:50;6.30;99.90
11264;DHT22;5689;48.798;9.070;2023-12-14T01:35:18;6.50;99.90
11264;DHT22;5689;48.798;9.070;2023-12-14T01:37:46;6.60;99.90
11264;DHT22;5689;48.798;9.070;2023-12-14T01:40:18;6.30;99.90
11264;DHT22;5689;48.798;9.070;2023-12-14T01:42:46;6.20;99.90
11264;DHT22;5689;48.798;9.070;2023-12-14T01:45:14;6.50;99.90
11264;DHT22;5689;48.798;9.070;2023-12-14T01:47:43;6.50;99.90
11264;DHT22;5689;48.798;9.070;2023-12-14T01:50:13;6.40;99.90
11264;DHT22;5689;48.798;9.070;2023-12-14T01:52:41;6.40;99.90
11264;DHT22;5689;48.798;9.070;2023-12-14T01:55:08;6.40;99.90
11264;DHT22;5689;48.798;9.070;2023-12-14T01:57:36;6.40;99.90
11264;DHT22;5689;48.798;9.070;2023-12-14T02:00:06;6.40;99.90
11264;DHT22;5689;48.798;9.070;2023-12-14T02:02:34;6.20;99.90
11264;DHT22;5689;48.798;9.070;2023-12-14T02:05:04;6.40;99.90
11264;DHT22;5689;48.798;9.070;2023-12-14T02:07:34;6.60;99.90
11264;DHT22;5689;48.798;9.070;2023-12-14T02:10:02;6.40;99.90
11264;DHT22;5689;48.798;9.070;2023-12-14T02:12:30;6.50;99.90
11264;DHT22;5689;48.798;9.070;2023-12-14T02:15:00;6.50;99.90
11264;DHT22;5689;48.798;9.070;2023-12-14T02:17:28;6.60;99.90
11264;DHT22;5689;48.798;9.070;2023-12-14T02:19:56;6.60;99.90
11264;DHT22;5689;48.798;9.070;2023-12-14T02:22:24;6.70;99.90
11264;DHT22;5689;48.798;9.070;2023-12-14T02:24:53;6.60;99.90
11264;DHT22;5689;48.798;9.070;2023-12-14T02:27:21;6.60;99.90
11264;DHT22;5689;48.798;9.070;2023-12-14T02:29:49;6.60;99.90
11264;DHT22;5689;48.798;9.070;2023-12-14T02:32:17;6.60;99.90
11264;DHT22;5689;48.798;9.070;2023-12-14T02:34:45;6.70;99.90
11264;DHT22;5689;48.798;9.070;2023-12-14T02:37:13;6.70;99.90
11264;DHT22;5689;48.798;9.070;2023-12-14T02:39:40;6.60;99.90
11264;DHT22;5689;48.798;9.070;2023-12-14T02:42:10;6.60;99.90
11264;DHT22;5689;48.798;9.070;2023-12-14T02:44:38;6.50;99.90
11264;DHT22;5689;48.798;9.070;2023-12-14T02:47:06;6.50;99.90
11264;DHT22;5689;48.798;9.070;2023-12-14T02:49:34;6.50;99.90
11264;DHT22;5689;48.798;9.070;2023-12-14T02:52:02;6.60;99.90
11264;DHT22;5689;48.798;9.070;2023-12-14T02:54:30;6.70;99.90
11264;DHT22;5689;48.798;9.070;2023-12-14T02:56:58;6.80;99.90
11264;DHT22;5689;48.798;9.070;2023-12-14T02:59:27;6.80;99.90
11264;DHT22;5689;48.798;9.070;2023-12-14T03:01:55;6.90;99.90
11264;DHT22;5689;48.798;9.070;2023-12-14T03:04:23;6.90;99.90
11264;DHT22;5689;48.798;9.070;2023-12-14T03:06:51;7.00;99.90
11264;DHT22;5689;48.798;9.070;2023-12-14T03:09:20;6.90;99.90
11264;DHT22;5689;48.798;9.070;2023-12-14T03:11:48;6.80;99.90
11264;DHT22;5689;48.798;9.070;2023-12-14T03:14:16;6.90;99.90
11264;DHT22;5689;48.798;9.070;2023-12-14T03:16:46;6.90;99.90
11264;DHT22;5689;48.798;9.070;2023-12-14T03:19:15;6.90;99.90
11264;DHT22;5689;48.798;9.070;2023-12-14T03:21:43;6.90;99.90
11264;DHT22;5689;48.798;9.070;2023-12-14T03:24:11;6.90;99.90
11264;DHT22;5689;48.798;9.070;2023-12-14T03:26:39;6.90;99.90
11264;DHT22;5689;48.798;9.070;2023-12-14T03:29:08;6.80;99.90
11264;DHT22;5689;48.798;9.070;2023-12-14T03:31:36;6.90;99.90
11264;DHT22;5689;48.798;9.070;2023-12-14T03:34:05;6.90;99.90
11264;DHT22;5689;48.798;9.070;2023-12-14T03:36:33;6.80;99.90
11264;DHT22;5689;48.798;9.070;2023-12-14T03:39:01;6.70;99.90
11264;DHT22;5689;48.798;9.070;2023-12-14T03:41:29;6.90;99.90
11264;DHT22;5689;48.798;9.070;2023-12-14T03:43:57;6.90;99.90
11264;DHT22;5689;48.798;9.070;2023-12-14T03:46:25;6.90;99.90
11264;DHT22;5689;48.798;9.070;2023-12-14T03:48:53;6.70;99.90
11264;DHT22;5689;48.798;9.070;2023-12-14T03:51:22;6.70;99.90
11264;DHT22;5689;48.798;9.070;2023-12-14T03:53:50;6.60;99.90
11264;DHT22;5689;48.798;9.070;2023-12-14T03:56:18;6.60;99.90
11264;DHT22;5689;48.798;9.070;2023-12-14T03:58:46;6.50;99.90
11264;DHT22;5689;48.798;9.070;2023-12-14T04:01:17;6.60;99.90
11264;DHT22;5689;48.798;9.070;2023-12-14T04:03:46;6.50;99.90
11264;DHT22;5689;48.798;9.070;2023-12-14T04:06:14;6.50;99.90
11264;DHT22;5689;48.798;9.070;2023-12-14T04:08:43;6.40;99.90
11264;DHT22;5689;48.798;9.070;2023-12-14T04:11:11;6.50;99.90
11264;DHT22;5689;48.798;9.070;2023-12-14T04:13:39;6.50;99.90
11264;DHT22;5689;48.798;9.070;2023-12-14T04:16:07;6.50;99.90
11264;DHT22;5689;48.798;9.070;2023-12-14T04:18:35;6.60;99.90
11264;DHT22;5689;48.798;9.070;2023-12-14T04:21:04;6.60;99.90
11264;DHT22;5689;48.798;9.070;2023-12-14T04:23:32;6.60;99.90
11264;DHT22;5689;48.798;9.070;2023-12-14T04:26:02;6.60;99.90
11264;DHT22;5689;48.798;9.070;2023-12-14T04:28:30;6.50;99.90
11264;DHT22;5689;48.798;9.070;2023-12-14T04:30:58;6.50;99.90
11264;DHT22;5689;48.798;9.070;2023-12-14T04:33:26;6.70;99.90
11264;DHT22;5689;48.798;9.070;2023-12-14T04:35:54;6.70;99.90
11264;DHT22;5689;48.798;9.070;2023-12-14T04:38:22;6.70;99.90
11264;DHT22;5689;48.798;9.070;2023-12-14T04:40:50;6.70;99.90
11264;DHT22;5689;48.798;9.070;2023-12-14T04:43:19;6.90;99.90
11264;DHT22;5689;48.798;9.070;2023-12-14T04:45:47;6.70;99.90
11264;DHT22;5689;48.798;9.070;2023-12-14T04:48:15;6.70;99.90
11264;DHT22;5689;48.798;9.070;2023-12-14T04:50:43;6.90;99.90
11264;DHT22;5689;48.798;9.070;2023-12-14T04:53:11;6.90;99.90
11264;DHT22;5689;48.798;9.070;2023-12-14T04:55:39;7.10;99.90
11264;DHT22;5689;48.798;9.070;2023-12-14T04:58:08;7.00;99.90
11264;DHT22;5689;48.798;9.070;2023-12-14T05:00:37;7.10;99.90
11264;DHT22;5689;48.798;9.070;2023-12-14T05:03:05;7.00;99.90
11264;DHT22;5689;48.798;9.070;2023-12-14T05:05:33;6.80;99.90
11264;DHT22;5689;48.798;9.070;2023-12-14T05:08:01;6.80;99.90
11264;DHT22;5689;48.798;9.070;2023-12-14T05:10:29;6.70;99.90
11264;DHT22;5689;48.798;9.070;2023-12-14T05:12:58;6.90;99.90
11264;DHT22;5689;48.798;9.070;2023-12-14T05:15:26;6.90;99.90
11264;DHT22;5689;48.798;9.070;2023-12-14T05:17:55;6.90;99.90
11264;DHT22;5689;48.798;9.070;2023-12-14T05:20:22;6.90;99.90
11264;DHT22;5689;48.798;9.070;2023-12-14T05:22:50;6.90;99.90
11264;DHT22;5689;48.798;9.070;2023-12-14T05:25:18;6.80;99.90
11264;DHT22;5689;48.798;9.070;2023-12-14T05:27:46;6.70;99.90
11264;DHT22;5689;48.798;9.070;2023-12-14T05:30:14;6.60;99.90
11264;DHT22;5689;48.798;9.070;2023-12-14T05:32:42;6.60;99.90
11264;DHT22;5689;48.798;9.070;2023-12-14T05:35:12;6.70;99.90
11264;DHT22;5689;48.798;9.070;2023-12-14T05:37:40;6.80;99.90
11264;DHT22;5689;48.798;9.070;2023-12-14T05:40:10;6.80;99.90
11264;DHT22;5689;48.798;9.070;2023-12-14T05:42:38;6.80;99.90
11264;DHT22;5689;48.798;9.070;2023-12-14T05:45:07;6.80;99.90
11264;DHT22;5689;48.798;9.070;2023-12-14T05:47:36;6.70;99.90
11264;DHT22;5689;48.798;9.070;2023-12-14T05:50:05;6.70;99.90
11264;DHT22;5689;48.798;9.070;2023-12-14T05:52:37;6.60;99.90
11264;DHT22;5689;48.798;9.070;2023-12-14T05:55:08;6.60;99.90
11264;DHT22;5689;48.798;9.070;2023-12-14T05:57:36;6.60;99.90
11264;DHT22;5689;48.798;9.070;2023-12-14T06:00:06;6.70;99.90
11264;DHT22;5689;48.798;9.070;2023-12-14T06:02:35;6.70;99.90
11264;DHT22;5689;48.798;9.070;2023-12-14T06:05:05;6.80;99.90
11264;DHT22;5689;48.798;9.070;2023-12-14T06:07:33;7.00;99.90
11264;DHT22;5689;48.798;9.070;2023-12-14T06:10:04;6.90;99.90
11264;DHT22;5689;48.798;9.070;2023-12-14T06:12:32;6.90;99.90
11264;DHT22;5689;48.798;9.070;2023-12-14T06:15:00;6.80;99.90
11264;DHT22;5689;48.798;9.070;2023-12-14T06:17:28;6.90;99.90
11264;DHT22;5689;48.798;9.070;2023-12-14T06:19:56;6.90;99.90
11264;DHT22;5689;48.798;9.070;2023-12-14T06:22:24;6.80;99.90
11264;DHT22;5689;48.798;9.070;2023-12-14T06:24:52;6.90;99.90
11264;DHT22;5689;48.798;9.070;2023-12-14T06:27:22;6.90;99.90
11264;DHT22;5689;48.798;9.070;2023-12-14T06:29:53;6.90;99.90
11264;DHT22;5689;48.798;9.070;2023-12-14T06:32:21;6.90;99.90
11264;DHT22;5689;48.798;9.070;2023-12-14T06:34:49;6.80;99.90
11264;DHT22;5689;48.798;9.070;2023-12-14T06:37:17;6.70;99.90
11264;DHT22;5689;48.798;9.070;2023-12-14T06:39:45;6.70;99.90
11264;DHT22;5689;48.798;9.070;2023-12-14T06:42:14;6.60;99.90
11264;DHT22;5689;48.798;9.070;2023-12-14T06:44:43;6.60;99.90
11264;DHT22;5689;48.798;9.070;2023-12-14T06:47:11;6.70;99.90
11264;DHT22;5689;48.798;9.070;2023-12-14T06:49:40;6.70;99.90
11264;DHT22;5689;48.798;9.070;2023-12-14T06:52:08;6.70;99.90
11264;DHT22;5689;48.798;9.070;2023-12-14T06:54:37;6.60;99.90
11264;DHT22;5689;48.798;9.070;2023-12-14T06:57:05;6.60;99.90
11264;DHT22;5689;48.798;9.070;2023-12-14T06:59:33;6.60;99.90
11264;DHT22;5689;48.798;9.070;2023-12-14T07:02:03;6.70;99.90
11264;DHT22;5689;48.798;9.070;2023-12-14T07:04:31;6.60;99.90
11264;DHT22;5689;48.798;9.070;2023-12-14T07:06:59;6.40;99.90
11264;DHT22;5689;48.798;9.070;2023-12-14T07:09:27;6.60;99.90
11264;DHT22;5689;48.798;9.070;2023-12-14T07:11:55;6.70;99.90
11264;DHT22;5689;48.798;9.070;2023-12-14T07:14:23;6.60;99.90
11264;DHT22;5689;48.798;9.070;2023-12-14T07:16:51;6.80;99.90
11264;DHT22;5689;48.798;9.070;2023-12-14T07:19:21;6.80;99.90
11264;DHT22;5689;48.798;9.070;2023-12-14T07:21:49;6.80;99.90
11264;DHT22;5689;48.798;9.070;2023-12-14T07:24:17;6.80;99.90
11264;DHT22;5689;48.798;9.070;2023-12-14T07:26:45;6.80;99.90
11264;DHT22;5689;48.798;9.070;2023-12-14T07:29:13;6.80;99.90
11264;DHT22;5689;48.798;9.070;2023-12-14T07:31:41;6.80;99.90
11264;DHT22;5689;48.798;9.070;2023-12-14T07:34:09;7.00;99.90
11264;DHT22;5689;48.798;9.070;2023-12-14T07:36:38;7.00;99.90
11264;DHT22;5689;48.798;9.070;2023-12-14T07:39:06;7.10;99.90
11264;DHT22;5689;48.798;9.070;2023-12-14T07:41:35;7.10;99.90
11264;DHT22;5689;48.798;9.070;2023-12-14T07:44:05;7.10;99.90
11264;DHT22;5689;48.798;9.070;2023-12-14T07:46:36;7.10;99.90
11264;DHT22;5689;48.798;9.070;2023-12-14T07:49:08;7.10;99.90
11264;DHT22;5689;48.798;9.070;2023-12-14T07:51:36;7.10;99.90
11264;DHT22;5689;48.798;9.070;2023-12-14T07:54:05;7.10;99.90
11264;DHT22;5689;48.798;9.070;2023-12-14T07:56:33;7.20;99.90
11264;DHT22;5689;48.798;9.070;2023-12-14T07:59:01;7.30;99.90
11264;DHT22;5689;48.798;9.070;2023-12-14T08:01:33;7.30;99.90
11264;DHT22;5689;48.798;9.070;2023-12-14T08:04:01;7.40;99.90
11264;DHT22;5689;48.798;9.070;2023-12-14T08:06:30;7.40;99.90
11264;DHT22;5689;48.798;9.070;2023-12-14T08:08:58;7.40;99.90
11264;DHT22;5689;48.798;9.070;2023-12-14T08:11:27;7.30;99.90
11264;DHT22;5689;48.798;9.070;2023-12-14T08:13:55;7.20;99.90
11264;DHT22;5689;48.798;9.070;2023-12-14T08:16:23;7.10;99.90
11264;DHT22;5689;48.798;9.070;2023-12-14T08:18:51;7.00;99.90
11264;DHT22;5689;48.798;9.070;2023-12-14T08:21:19;6.90;99.90
11264;DHT22;5689;48.798;9.070;2023-12-14T08:23:47;6.90;99.90
11264;DHT22;5689;48.798;9.070;2023-12-14T08:26:15;6.80;99.90
11264;DHT22;5689;48.798;9.070;2023-12-14T08:28:45;6.80;99.90
11264;DHT22;5689;48.798;9.070;2023-12-14T08:31:13;6.70;99.90
11264;DHT22;5689;48.798;9.070;2023-12-14T08:33:41;6.60;99.90
11264;DHT22;5689;48.798;9.070;2023-12-14T08:36:10;6.70;99.90
11264;DHT22;5689;48.798;9.070;2023-12-14T08:38:38;6.70;99.90
11264;DHT22;5689;48.798;9.070;2023-12-14T08:41:05;6.80;99.90
11264;DHT22;5689;48.798;9.070;2023-12-14T08:43:34;6.90;99.90
11264;DHT22;5689;48.798;9.070;2023-12-14T08:46:03;7.30;99.90
11264;DHT22;5689;48.798;9.070;2023-12-14T08:48:31;7.50;99.90
11264;DHT22;5689;48.798;9.070;2023-12-14T08:50:59;7.60;99.90
11264;DHT22;5689;48.798;9.070;2023-12-14T08:53:27;7.60;99.90
11264;DHT22;5689;48.798;9.070;2023-12-14T08:55:56;7.60;99.90
11264;DHT22;5689;48.798;9.070;2023-12-14T08:58:24;7.60;99.90
11264;DHT22;5689;48.798;9.070;2023-12-14T09:00:52;7.60;99.90
11264;DHT22;5689;48.798;9.070;2023-12-14T09:03:22;7.60;99.90
11264;DHT22;5689;48.798;9.070;2023-12-14T09:05:50;7.70;99.90
11264;DHT22;5689;48.798;9.070;2023-12-14T09:08:18;7.70;99.90
11264;DHT22;5689;48.798;9.070;2023-12-14T09:10:46;7.90;99.90
11264;DHT22;5689;48.798;9.070;2023-12-14T09:13:14;7.90;99.90
11264;DHT22;5689;48.798;9.070;2023-12-14T09:15:42;7.90;99.90
11264;DHT22;5689;48.798;9.070;2023-12-14T09:18:10;7.90;99.90
11264;DHT22;5689;48.798;9.070;2023-12-14T09:20:39;8.00;99.90
11264;DHT22;5689;48.798;9.070;2023-12-14T09:23:09;8.10;99.90
11264;DHT22;5689;48.798;9.070;2023-12-14T09:25:37;8.10;99.90
11264;DHT22;5689;48.798;9.070;2023-12-14T09:28:06;8.00;99.90
11264;DHT22;5689;48.798;9.070;2023-12-14T09:30:34;8.00;99.90
11264;DHT22;5689;48.798;9.070;2023-12-14T09:33:02;7.90;99.90
11264;DHT22;5689;48.798;9.070;2023-12-14T09:35:30;7.80;99.90
11264;DHT22;5689;48.798;9.070;2023-12-14T09:38:01;7.70;99.90
11264;DHT22;5689;48.798;9.070;2023-12-14T09:40:29;7.80;99.90
11264;DHT22;5689;48.798;9.070;2023-12-14T09:42:57;8.00;99.90
11264;DHT22;5689;48.798;9.070;2023-12-14T09:45:28;8.00;99.90
11264;DHT22;5689;48.798;9.070;2023-12-14T09:47:56;7.80;99.90
11264;DHT22;5689;48.798;9.070;2023-12-14T09:50:25;7.70;99.90
11264;DHT22;5689;48.798;9.070;2023-12-14T09:52:54;7.70;99.90
11264;DHT22;5689;48.798;9.070;2023-12-14T09:55:23;7.80;99.90
11264;DHT22;5689;48.798;9.070;2023-12-14T09:57:51;7.80;99.90
11264;DHT22;5689;48.798;9.070;2023-12-14T10:00:33;7.80;99.90
11264;DHT22;5689;48.798;9.070;2023-12-14T10:03:20;8.10;99.90
11264;DHT22;5689;48.798;9.070;2023-12-14T10:05:50;8.50;99.90
11264;DHT22;5689;48.798;9.070;2023-12-14T10:08:19;8.70;99.90
11264;DHT22;5689;48.798;9.070;2023-12-14T10:10:51;8.80;99.90
11264;DHT22;5689;48.798;9.070;2023-12-14T10:13:21;8.90;99.90
11264;DHT22;5689;48.798;9.070;2023-12-14T10:15:50;8.80;99.90
11264;DHT22;5689;48.798;9.070;2023-12-14T10:18:22;8.70;99.90
11264;DHT22;5689;48.798;9.070;2023-12-14T10:20:51;8.70;99.90
11264;DHT22;5689;48.798;9.070;2023-12-14T10:23:19;8.90;99.90
11264;DHT22;5689;48.798;9.070;2023-12-14T10:25:49;9.20;99.90
11264;DHT22;5689;48.798;9.070;2023-12-14T10:28:17;9.20;99.90
11264;DHT22;5689;48.798;9.070;2023-12-14T10:30:45;9.20;99.90
11264;DHT22;5689;48.798;9.070;2023-12-14T10:33:13;9.10;99.90
11264;DHT22;5689;48.798;9.070;2023-12-14T10:35:43;9.20;99.90
11264;DHT22;5689;48.798;9.070;2023-12-14T10:38:15;9.50;99.90
11264;DHT22;5689;48.798;9.070;2023-12-14T10:40:45;9.50;99.90
11264;DHT22;5689;48.798;9.070;2023-12-14T10:43:15;9.20;99.90
11264;DHT22;5689;48.798;9.070;2023-12-14T10:45:49;8.90;99.90
11264;DHT22;5689;48.798;9.070;2023-12-14T10:48:17;8.60;99.90
11264;DHT22;5689;48.798;9.070;2023-12-14T10:50:48;8.50;99.90
11264;DHT22;5689;48.798;9.070;2023-12-14T10:53:18;8.60;99.90
11264;DHT22;5689;48.798;9.070;2023-12-14T10:55:47;8.50;99.90
11264;DHT22;5689;48.798;9.070;2023-12-14T10:58:19;8.70;99.90
11264;DHT22;5689;48.798;9.070;2023-12-14T11:00:58;8.80;99.90
11264;DHT22;5689;48.798;9.070;2023-12-14T11:03:33;8.80;99.90
11264;DHT22;5689;48.798;9.070;2023-12-14T11:06:01;8.80;99.90
11264;DHT22;5689;48.798;9.070;2023-12-14T11:08:34;8.80;99.90
11264;DHT22;5689;48.798;9.070;2023-12-14T11:11:04;8.60;99.90
11264;DHT22;5689;48.798;9.070;2023-12-14T11:13:40;8.60;99.90
11264;DHT22;5689;48.798;9.070;2023-12-14T11:16:08;8.70;99.90
11264;DHT22;5689;48.798;9.070;2023-12-14T11:18:36;8.80;99.90
11264;DHT22;5689;48.798;9.070;2023-12-14T11:21:06;9.10;99.90
11264;DHT22;5689;48.798;9.070;2023-12-14T11:23:36;9.00;99.90
11264;DHT22;5689;48.798;9.070;2023-12-14T11:26:08;8.60;99.90
11264;DHT22;5689;48.798;9.070;2023-12-14T11:28:39;8.60;99.90
11264;DHT22;5689;48.798;9.070;2023-12-14T11:31:10;8.70;99.90
11264;DHT22;5689;48.798;9.070;2023-12-14T11:33:39;8.60;99.90
11264;DHT22;5689;48.798;9.070;2023-12-14T11:36:08;8.60;99.90
11264;DHT22;5689;48.798;9.070;2023-12-14T11:38:36;8.60;99.90
11264;DHT22;5689;48.798;9.070;2023-12-14T11:41:04;8.50;99.90
11264;DHT22;5689;48.798;9.070;2023-12-14T11:43:40;8.80;99.90
11264;DHT22;5689;48.798;9.070;2023-12-14T11:46:09;9.20;99.90
11264;DHT22;5689;48.798;9.070;2023-12-14T11:48:37;9.50;99.90
11264;DHT22;5689;48.798;9.070;2023-12-14T11:51:05;10.00;99.90
11264;DHT22;5689;48.798;9.070;2023-12-14T11:53:35;9.60;99.90
11264;DHT22;5689;48.798;9.070;2023-12-14T11:56:06;9.50;99.90
11264;DHT22;5689;48.798;9.070;2023-12-14T11:58:34;9.80;99.90
11264;DHT22;5689;48.798;9.070;2023-12-14T12:01:14;9.90;99.90
11264;DHT22;5689;48.798;9.070;2023-12-14T12:03:43;10.70;99.90
11264;DHT22;5689;48.798;9.070;2023-12-14T12:06:19;10.20;99.90
11264;DHT22;5689;48.798;9.070;2023-12-14T12:08:47;10.00;99.90
11264;DHT22;5689;48.798;9.070;2023-12-14T12:11:16;8.90;99.90
11264;DHT22;5689;48.798;9.070;2023-12-14T12:13:50;8.50;99.90
11264;DHT22;5689;48.798;9.070;2023-12-14T12:16:19;8.10;99.90
11264;DHT22;5689;48.798;9.070;2023-12-14T12:18:48;7.90;99.90
11264;DHT22;5689;48.798;9.070;2023-12-14T12:21:17;7.90;99.90
11264;DHT22;5689;48.798;9.070;2023-12-14T12:23:45;7.90;99.90
11264;DHT22;5689;48.798;9.070;2023-12-14T12:26:13;7.80;99.90
11264;DHT22;5689;48.798;9.070;2023-12-14T12:28:41;7.80;99.90
11264;DHT22;5689;48.798;9.070;2023-12-14T12:31:09;7.80;99.90
11264;DHT22;5689;48.798;9.070;2023-12-14T12:33:39;7.80;99.90
11264;DHT22;5689;48.798;9.070;2023-12-14T12:36:07;7.60;99.90
11264;DHT22;5689;48.798;9.070;2023-12-14T12:38:35;7.50;99.90
11264;DHT22;5689;48.798;9.070;2023-12-14T12:41:06;7.40;99.90
11264;DHT22;5689;48.798;9.070;2023-12-14T12:43:34;7.30;99.90
11264;DHT22;5689;48.798;9.070;2023-12-14T12:46:03;7.30;99.90
11264;DHT22;5689;48.798;9.070;2023-12-14T12:48:31;7.30;99.90
11264;DHT22;5689;48.798;9.070;2023-12-14T12:51:00;7.40;99.90
11264;DHT22;5689;48.798;9.070;2023-12-14T12:53:28;7.50;99.90
11264;DHT22;5689;48.798;9.070;2023-12-14T12:55:57;7.50;99.90
11264;DHT22;5689;48.798;9.070;2023-12-14T12:58:25;7.40;99.90
11264;DHT22;5689;48.798;9.070;2023-12-14T13:00:53;7.30;99.90
11264;DHT22;5689;48.798;9.070;2023-12-14T13:03:22;7.40;99.90
11264;DHT22;5689;48.798;9.070;2023-12-14T13:05:50;7.30;99.90
11264;DHT22;5689;48.798;9.070;2023-12-14T13:08:19;7.20;99.90
11264;DHT22;5689;48.798;9.070;2023-12-14T13:10:49;7.10;99.90
11264;DHT22;5689;48.798;9.070;2023-12-14T13:13:19;7.10;99.90
11264;DHT22;5689;48.798;9.070;2023-12-14T13:15:48;7.00;99.90
11264;DHT22;5689;48.798;9.070;2023-12-14T13:18:16;7.10;99.90
11264;DHT22;5689;48.798;9.070;2023-12-14T13:20:44;7.10;99.90
11264;DHT22;5689;48.798;9.070;2023-12-14T13:23:12;7.10;99.90
11264;DHT22;5689;48.798;9.070;2023-12-14T13:25:41;7.20;99.90
11264;DHT22;5689;48.798;9.070;2023-12-14T13:28:11;7.10;99.90
11264;DHT22;5689;48.798;9.070;2023-12-14T13:30:40;7.10;99.90
11264;DHT22;5689;48.798;9.070;2023-12-14T13:33:08;7.00;99.90
11264;DHT22;5689;48.798;9.070;2023-12-14T13:35:38;6.90;99.90
11264;DHT22;5689;48.798;9.070;2023-12-14T13:38:06;7.00;99.90
11264;DHT22;5689;48.798;9.070;2023-12-14T13:40:34;6.90;99.90
11264;DHT22;5689;48.798;9.070;2023-12-14T13:43:04;7.00;99.90
11264;DHT22;5689;48.798;9.070;2023-12-14T13:45:37;6.90;99.90
11264;DHT22;5689;48.798;9.070;2023-12-14T13:48:05;6.90;99.90
11264;DHT22;5689;48.798;9.070;2023-12-14T13:50:34;6.90;99.90
11264;DHT22;5689;48.798;9.070;2023-12-14T13:53:03;7.00;99.90
11264;DHT22;5689;48.798;9.070;2023-12-14T13:55:31;7.00;99.90
11264;DHT22;5689;48.798;9.070;2023-12-14T13:57:59;7.00;99.90
11264;DHT22;5689;48.798;9.070;2023-12-14T14:00:29;7.10;99.90
11264;DHT22;5689;48.798;9.070;2023-12-14T14:02:57;7.20;99.90
11264;DHT22;5689;48.798;9.070;2023-12-14T14:05:25;7.20;99.90
11264;DHT22;5689;48.798;9.070;2023-12-14T14:07:53;7.00;99.90
11264;DHT22;5689;48.798;9.070;2023-12-14T14:10:21;7.10;99.90
11264;DHT22;5689;48.798;9.070;2023-12-14T14:12:49;7.10;99.90
11264;DHT22;5689;48.798;9.070;2023-12-14T14:15:18;7.10;99.90
11264;DHT22;5689;48.798;9.070;2023-12-14T14:17:48;7.20;99.90
11264;DHT22;5689;48.798;9.070;2023-12-14T14:20:18;7.10;99.90
11264;DHT22;5689;48.798;9.070;2023-12-14T14:22:46;6.90;99.90
11264;DHT22;5689;48.798;9.070;2023-12-14T14:25:14;6.90;99.90
11264;DHT22;5689;48.798;9.070;2023-12-14T14:27:42;6.80;99.90
11264;DHT22;5689;48.798;9.070;2023-12-14T14:30:13;6.80;99.90
11264;DHT22;5689;48.798;9.070;2023-12-14T14:32:42;6.80;99.90
11264;DHT22;5689;48.798;9.070;2023-12-14T14:35:12;6.80;99.90
11264;DHT22;5689;48.798;9.070;2023-12-14T14:37:40;6.90;99.90
11264;DHT22;5689;48.798;9.070;2023-12-14T14:40:12;6.90;99.90
11264;DHT22;5689;48.798;9.070;2023-12-14T14:42:40;7.00;99.90
11264;DHT22;5689;48.798;9.070;2023-12-14T14:45:09;6.90;99.90
11264;DHT22;5689;48.798;9.070;2023-12-14T14:47:40;7.10;99.90
11264;DHT22;5689;48.798;9.070;2023-12-14T14:50:09;7.20;99.90
11264;DHT22;5689;48.798;9.070;2023-12-14T14:52:38;7.30;99.90
11264;DHT22;5689;48.798;9.070;2023-12-14T14:55:07;7.30;99.90
11264;DHT22;5689;48.798;9.070;2023-12-14T14:57:35;7.20;99.90
11264;DHT22;5689;48.798;9.070;2023-12-14T15:00:04;7.20;99.90
11264;DHT22;5689;48.798;9.070;2023-12-14T15:02:32;7.30;99.90
11264;DHT22;5689;48.798;9.070;2023-12-14T15:05:01;7.30;99.90
11264;DHT22;5689;48.798;9.070;2023-12-14T15:07:29;7.20;99.90
11264;DHT22;5689;48.798;9.070;2023-12-14T15:09:58;7.10;99.90
11264;DHT22;5689;48.798;9.070;2023-12-14T15:12:26;7.10;99.90
11264;DHT22;5689;48.798;9.070;2023-12-14T15:14:54;7.10;99.90
11264;DHT22;5689;48.798;9.070;2023-12-14T15:17:22;7.00;99.90
11264;DHT22;5689;48.798;9.070;2023-12-14T15:19:50;7.00;99.90
11264;DHT22;5689;48.798;9.070;2023-12-14T15:22:18;7.00;99.90
11264;DHT22;5689;48.798;9.070;2023-12-14T15:24:46;7.00;99.90
11264;DHT22;5689;48.798;9.070;2023-12-14T15:27:16;6.90;99.90
11264;DHT22;5689;48.798;9.070;2023-12-14T15:29:44;6.90;99.90
11264;DHT22;5689;48.798;9.070;2023-12-14T15:32:12;6.90;99.90
11264;DHT22;5689;48.798;9.070;2023-12-14T15:34:41;7.00;99.90
11264;DHT22;5689;48.798;9.070;2023-12-14T15:37:09;6.90;99.90
11264;DHT22;5689;48.798;9.070;2023-12-14T15:39:37;6.90;99.90
11264;DHT22;5689;48.798;9.070;2023-12-14T15:42:05;6.90;99.90
11264;DHT22;5689;48.798;9.070;2023-12-14T15:44:35;6.90;99.90
11264;DHT22;5689;48.798;9.070;2023-12-14T15:47:03;7.00;99.90
11264;DHT22;5689;48.798;9.070;2023-12-14T15:49:31;7.00;99.90
11264;DHT22;5689;48.798;9.070;2023-12-14T15:51:59;7.00;99.90
11264;DHT22;5689;48.798;9.070;2023-12-14T15:54:27;7.00;99.90
11264;DHT22;5689;48.798;9.070;2023-12-14T15:56:55;7.00;99.90
11264;DHT22;5689;48.798;9.070;2023-12-14T15:59:25;7.00;99.90
11264;DHT22;5689;48.798;9.070;2023-12-14T16:01:55;7.10;99.90
11264;DHT22;5689;48.798;9.070;2023-12-14T16:04:23;7.10;99.90
11264;DHT22;5689;48.798;9.070;2023-12-14T16:06:51;7.10;99.90
11264;DHT22;5689;48.798;9.070;2023-12-14T16:09:19;7.10;99.90
11264;DHT22;5689;48.798;9.070;2023-12-14T16:11:47;7.00;99.90